Time;durP1;ratioP1;P1;durP2;ratioP2;P2;SDS_P1;SDS_P2;PMS_P1;PMS_P2;Temp;Humidity;BMP_temperature;BMP_pressure;BME280_temperature;BME280_humidity;BME280_pressure;Samples;Min_cycle;Max_cycle;Signal;HPM_P1;HPM_P2
2021/06/14 00:00:38;;;;;;;;;;;;;;;;;;4943523;28;20302;-92
2021/06/14 00:03:06;;;;;;;;;;;;;;;;;;4943355;28;19922;-91
2021/06/14 00:05:37;;;;;;;;;;;;;;;;;;4947050;28;19929;-92
2021/06/14 00:08:05;;;;;;;;;;;;;;;;;;4946477;28;19929;-92
2021/06/14 00:10:34;;;;;;;;;;;;;;;;;;4947498;28;19922;-92
2021/06/14 00:13:02;;;;;;;;;;;;;;;;;;4952227;28;19937;-91
2021/06/14 00:15:31;;;;;;;;;;;;;;;;;;4952585;28;20301;-92
2021/06/14 00:17:59;;;;;;;;;;;;;;;;;;4949378;28;19922;-91
2021/06/14 00:20:28;;;;;;;;;;;;;;;;;;4951366;28;20366;-91
2021/06/14 00:22:58;;;;;;;;;;;;;;;;;;4950367;28;19929;-90
2021/06/14 00:25:27;;;;;;;;;;;;;;;;;;4969206;28;19922;-91
2021/06/14 00:27:56;;;;;;;;;;;;;;;;;;4952953;28;19922;-91
2021/06/14 00:30:27;;;;;;;;;;;;;;;;;;4947847;28;19922;-92
2021/06/14 00:32:55;;;;;;;;;;;;;;;;;;4947181;28;19929;-92
2021/06/14 00:35:24;;;;;;;;;;;;;;;;;;4946121;28;19922;-91
2021/06/14 00:37:52;;;;;;;;;;;;;;;;;;4946895;28;20326;-90
2021/06/14 00:40:23;;;;;;;;;;;;;;;;;;4946063;28;20413;-93
2021/06/14 00:42:51;;;;;;;;;;;;;;;;;;4946952;28;19922;-92
2021/06/14 00:45:22;;;;;;;;;;;;;;;;;;4949530;28;20386;-91
2021/06/14 00:47:51;;;;;;;;;;;;;;;;;;4950959;28;20294;-92
2021/06/14 00:50:21;;;;;;;;;;;;;;;;;;4948310;28;19945;-91
2021/06/14 00:52:49;;;;;;;;;;;;;;;;;;4947257;28;19929;-92
2021/06/14 00:55:19;;;;;;;;;;;;;;;;;;4966574;28;19922;-91
2021/06/14 00:57:49;;;;;;;;;;;;;;;;;;4944082;28;19922;-93
2021/06/14 01:00:18;;;;;;;;;;;;;;;;;;4959803;28;19926;-93
2021/06/14 01:02:53;;;;;;;;;;;;;;;;;;4944502;28;19929;-92
2021/06/14 01:05:23;;;;;;;;;;;;;;;;;;4943055;28;20003;-92
2021/06/14 01:07:54;;;;;;;;;;;;;;;;;;4959316;28;19926;-92
2021/06/14 01:10:22;;;;;;;;;;;;;;;;;;4942971;28;19929;-92
2021/06/14 01:12:56;;;;;;;;;;;;;;;;;;4943270;28;20313;-91
2021/06/14 01:15:25;;;;;;;;;;;;;;;;;;4942917;28;19926;-91
2021/06/14 01:17:56;;;;;;;;;;;;;;;;;;4946067;28;19959;-92
2021/06/14 01:20:37;;;;;;;;;;;;;;;;;;4944236;28;19945;-94
2021/06/14 01:23:13;;;;;;;;;;;;;;;;;;4946133;28;19922;-93
2021/06/14 01:25:46;;;;;;;;;;;;;;;;;;4943257;28;20408;-93
2021/06/14 01:28:17;;;;;;;;;;;;;;;;;;4944939;28;19922;-93
2021/06/14 01:30:45;;;;;;;;;;;;;;;;;;4945153;28;19929;-94
2021/06/14 01:33:19;;;;;;;;;;;;;;;;;;4949635;28;19929;-94
2021/06/14 01:35:49;;;;;;;;;;;;;;;;;;4947993;28;19922;-94
2021/06/14 01:38:19;;;;;;;;;;;;;;;;;;4959234;28;19922;-92
2021/06/14 01:40:51;;;;;;;;;;;;;;;;;;4944005;28;19922;-93
2021/06/14 01:43:23;;;;;;;;;;;;;;;;;;4944491;28;20382;-92
2021/06/14 01:45:54;;;;;;;;;;;;;;;;;;4944490;28;19929;-93
2021/06/14 01:48:23;;;;;;;;;;;;;;;;;;4950676;28;19922;-92
2021/06/14 01:50:53;;;;;;;;;;;;;;;;;;4944042;28;19922;-93
2021/06/14 01:53:23;;;;;;;;;;;;;;;;;;4944962;28;19929;-93
2021/06/14 01:55:59;;;;;;;;;;;;;;;;;;4947104;28;19929;-93
2021/06/14 01:58:30;;;;;;;;;;;;;;;;;;4947043;28;19929;-93
2021/06/14 02:01:11;;;;;;;;;;;;;;;;;;4947221;28;19937;-92
2021/06/14 02:03:48;;;;;;;;;;;;;;;;;;4947526;28;19922;-94
2021/06/14 02:06:30;;;;;;;;;;;;;;;;;;4954811;28;20421;-94
2021/06/14 02:08:59;;;;;;;;;;;;;;;;;;4957417;28;19922;-94
2021/06/14 02:11:28;;;;;;;;;;;;;;;;;;4951603;28;19929;-94
2021/06/14 02:13:59;;;;;;;;;;;;;;;;;;4948620;28;19922;-93
2021/06/14 02:16:28;;;;;;;;;;;;;;;;;;4949683;28;19921;-92
2021/06/14 02:18:57;;;;;;;;;;;;;;;;;;4951541;28;19926;-93
2021/06/14 02:21:27;;;;;;;;;;;;;;;;;;4953374;28;19929;-93
2021/06/14 02:23:56;;;;;;;;;;;;;;;;;;4973911;28;20408;-93
2021/06/14 02:26:24;;;;;;;;;;;;;;;;;;4950871;28;19922;-94
2021/06/14 02:28:53;;;;;;;;;;;;;;;;;;4950825;28;19929;-93
2021/06/14 02:31:23;;;;;;;;;;;;;;;;;;4953293;28;19929;-95
2021/06/14 02:33:52;;;;;;;;;;;;;;;;;;4953475;28;20199;-94
2021/06/14 02:36:21;;;;;;;;;;;;;;;;;;4951943;28;19929;-94
2021/06/14 02:38:49;;;;;;;;;;;;;;;;;;4954909;28;19922;-96
2021/06/14 02:41:22;;;;;;;;;;;;;;;;;;4955454;28;19929;-94
2021/06/14 02:43:54;;;;;;;;;;;;;;;;;;4954369;28;19922;-92
2021/06/14 02:46:24;;;;;;;;;;;;;;;;;;4954806;28;20381;-94
2021/06/14 02:48:53;;;;;;;;;;;;;;;;;;4953448;28;19922;-93
2021/06/14 02:51:22;;;;;;;;;;;;;;;;;;4952227;28;20386;-93
2021/06/14 02:54:03;;;;;;;;;;;;;;;;;;4968234;28;20374;-92
2021/06/14 02:56:35;;;;;;;;;;;;;;;;;;4950982;28;19922;-94
2021/06/14 02:59:04;;;;;;;;;;;;;;;;;;4949086;28;19929;-93
2021/06/14 03:01:34;;;;;;;;;;;;;;;;;;4948370;28;19929;-92
2021/06/14 03:04:04;;;;;;;;;;;;;;;;;;4949635;28;19921;-92
2021/06/14 03:06:32;;;;;;;;;;;;;;;;;;4949772;28;19922;-94
2021/06/14 03:09:03;;;;;;;;;;;;;;;;;;4947061;28;19926;-93
2021/06/14 03:11:31;;;;;;;;;;;;;;;;;;4950636;28;19922;-93
2021/06/14 03:14:07;;;;;;;;;;;;;;;;;;4949727;28;19926;-92
2021/06/14 03:16:37;;;;;;;;;;;;;;;;;;4949348;28;19929;-93
2021/06/14 03:19:09;;;;;;;;;;;;;;;;;;4950553;28;20009;-92
2021/06/14 03:21:38;;;;;;;;;;;;;;;;;;4948463;28;20315;-92
2021/06/14 03:24:09;;;;;;;;;;;;;;;;;;4945641;28;20386;-94
2021/06/14 03:26:39;;;;;;;;;;;;;;;;;;4943416;28;19922;-94
2021/06/14 03:29:08;;;;;;;;;;;;;;;;;;4944685;28;19937;-93
2021/06/14 03:31:38;;;;;;;;;;;;;;;;;;4960958;28;20267;-93
2021/06/14 03:34:06;;;;;;;;;;;;;;;;;;4945055;28;19922;-93
2021/06/14 03:36:35;;;;;;;;;;;;;;;;;;4946957;28;19922;-92
2021/06/14 03:39:03;;;;;;;;;;;;;;;;;;4965307;28;19922;-91
2021/06/14 03:41:32;;;;;;;;;;;;;;;;;;4953724;28;19929;-92
2021/06/14 03:44:02;;;;;;;;;;;;;;;;;;4952130;28;20398;-92
2021/06/14 03:46:30;;;;;;;;;;;;;;;;;;4951507;28;19922;-93
2021/06/14 03:49:01;;;;;;;;;;;;;;;;;;4953194;28;19921;-92
2021/06/14 03:51:29;;;;;;;;;;;;;;;;;;4951401;28;19929;-93
2021/06/14 03:53:58;;;;;;;;;;;;;;;;;;4954762;28;19926;-93
2021/06/14 03:56:27;;;;;;;;;;;;;;;;;;4954950;28;19922;-93
2021/06/14 03:58:56;;;;;;;;;;;;;;;;;;4951746;28;19929;-92
2021/06/14 04:01:25;;;;;;;;;;;;;;;;;;4955620;28;19930;-92
2021/06/14 04:04:09;;;;;;;;;;;;;;;;;;4950123;28;19922;-92
2021/06/14 04:06:39;;;;;;;;;;;;;;;;;;4948021;28;19933;-93
2021/06/14 04:09:08;;;;;;;;;;;;;;;;;;4950664;28;19926;-93
2021/06/14 04:11:36;;;;;;;;;;;;;;;;;;4950022;28;19922;-93
2021/06/14 04:14:06;;;;;;;;;;;;;;;;;;4949170;28;19922;-94
2021/06/14 04:16:35;;;;;;;;;;;;;;;;;;4949481;28;19951;-92
2021/06/14 04:19:03;;;;;;;;;;;;;;;;;;4952990;28;19929;-93
2021/06/14 04:21:32;;;;;;;;;;;;;;;;;;4950171;28;20391;-90
2021/06/14 04:24:04;;;;;;;;;;;;;;;;;;4955171;28;19922;-93
2021/06/14 04:26:33;;;;;;;;;;;;;;;;;;4993182;28;19928;-94
2021/06/14 04:29:01;;;;;;;;;;;;;;;;;;4977756;28;19922;-93
2021/06/14 04:31:30;;;;;;;;;;;;;;;;;;4965751;28;19929;-94
2021/06/14 04:33:58;;;;;;;;;;;;;;;;;;4960890;28;19928;-93
2021/06/14 04:36:27;;;;;;;;;;;;;;;;;;4952248;28;19924;-93
2021/06/14 04:38:55;;;;;;;;;;;;;;;;;;4950465;28;19933;-94
2021/06/14 04:41:25;;;;;;;;;;;;;;;;;;4952073;28;20290;-93
2021/06/14 04:43:53;;;;;;;;;;;;;;;;;;4953930;28;19922;-94
2021/06/14 04:46:21;;;;;;;;;;;;;;;;;;4954548;28;19922;-94
2021/06/14 04:48:50;;;;;;;;;;;;;;;;;;4952777;28;19922;-94
2021/06/14 04:51:18;;;;;;;;;;;;;;;;;;4964603;28;19922;-95
2021/06/14 04:53:46;;;;;;;;;;;;;;;;;;4984878;28;19910;-96
2021/06/14 04:56:14;;;;;;;;;;;;;;;;;;4968800;28;19917;-95
2021/06/14 04:58:45;;;;;;;;;;;;;;;;;;4963737;28;19922;-90
2021/06/14 05:01:14;;;;;;;;;;;;;;;;;;4949188;29;19922;-93
2021/06/14 05:03:42;;;;;;;;;;;;;;;;;;4953929;28;19928;-89
2021/06/14 05:06:11;;;;;;;;;;;;;;;;;;4949559;28;19926;-89
2021/06/14 05:08:39;;;;;;;;;;;;;;;;;;4954698;29;19934;-89
2021/06/14 05:11:07;;;;;;;;;;;;;;;;;;4958398;28;19922;-88
2021/06/14 05:13:36;;;;;;;;;;;;;;;;;;4947333;28;20290;-87
2021/06/14 05:16:06;;;;;;;;;;;;;;;;;;4954001;28;19930;-89
2021/06/14 05:18:34;;;;;;;;;;;;;;;;;;4946728;28;19929;-87
2021/06/14 05:21:03;;;;;;;;;;;;;;;;;;4942309;28;19922;-90
2021/06/14 05:23:31;;;;;;;;;;;;;;;;;;4954282;28;19923;-87
2021/06/14 05:25:59;;;;;;;;;;;;;;;;;;4955967;28;19942;-89
2021/06/14 05:28:27;;;;;;;;;;;;;;;;;;4966754;28;19926;-89
2021/06/14 05:30:56;;;;;;;;;;;;;;;;;;4943265;29;19922;-88
2021/06/14 05:33:26;;;;;;;;;;;;;;;;;;4937540;28;19933;-88
2021/06/14 05:35:54;;;;;;;;;;;;;;;;;;4939291;28;19922;-87
2021/06/14 05:38:22;;;;;;;;;;;;;;;;;;4956488;28;19938;-88
2021/06/14 05:40:50;;;;;;;;;;;;;;;;;;4960884;28;19921;-88
2021/06/14 05:43:19;;;;;;;;;;;;;;;;;;4946565;28;19929;-87
2021/06/14 05:45:47;;;;;;;;;;;;;;;;;;4942605;28;19922;-90
2021/06/14 05:48:16;;;;;;;;;;;;;;;;;;4958531;28;20397;-89
2021/06/14 05:50:46;;;;;;;;;;;;;;;;;;4942699;28;20310;-87
2021/06/14 05:53:15;;;;;;;;;;;;;;;;;;4956053;28;19922;-89
2021/06/14 05:55:43;;;;;;;;;;;;;;;;;;4957550;28;20298;-93
2021/06/14 05:58:12;;;;;;;;;;;;;;;;;;4942137;28;19922;-90
2021/06/14 06:00:40;;;;;;;;;;;;;;;;;;4939501;28;19926;-90
2021/06/14 06:03:09;;;;;;;;;;;;;;;;;;4943389;28;19922;-89
2021/06/14 06:05:39;;;;;;;;;;;;;;;;;;4953142;28;19926;-87
2021/06/14 06:08:09;;;;;;;;;;;;;;;;;;4957616;28;19928;-91
2021/06/14 06:10:37;;;;;;;;;;;;;;;;;;4962068;28;19933;-91
2021/06/14 06:13:09;;;;;;;;;;;;;;;;;;4957980;28;20301;-90
2021/06/14 06:15:37;;;;;;;;;;;;;;;;;;4939126;28;19933;-90
2021/06/14 06:18:05;;;;;;;;;;;;;;;;;;4945093;28;19921;-89
2021/06/14 06:20:33;;;;;;;;;;;;;;;;;;4941889;28;19922;-89
2021/06/14 06:23:02;;;;;;;;;;;;;;;;;;4941125;28;19922;-90
2021/06/14 06:25:31;;;;;;;;;;;;;;;;;;4945140;28;20543;-90
2021/06/14 06:28:01;;;;;;;;;;;;;;;;;;4948955;28;19929;-90
2021/06/14 06:30:31;;;;;;;;;;;;;;;;;;4944810;28;19933;-89
2021/06/14 06:32:59;;;;;;;;;;;;;;;;;;4940692;28;20309;-90
2021/06/14 06:35:28;;;;;;;;;;;;;;;;;;4940973;28;19922;-90
2021/06/14 06:37:57;;;;;;;;;;;;;;;;;;4937802;29;20291;-90
2021/06/14 06:40:27;;;;;;;;;;;;;;;;;;4959248;28;20448;-95
2021/06/14 06:42:57;;;;;;;;;;;;;;;;;;4959502;28;19926;-91
2021/06/14 06:45:26;;;;;;;;;;;;;;;;;;4942603;28;19922;-93
2021/06/14 06:47:55;;;;;;;;;;;;;;;;;;4963131;28;19922;-92
2021/06/14 06:50:24;;;;;;;;;;;;;;;;;;4961967;28;19929;-90
2021/06/14 06:52:54;;;;;;;;;;;;;;;;;;4955266;29;19930;-94
2021/06/14 06:55:23;;;;;;;;;;;;;;;;;;4924129;29;19922;-94
2021/06/14 06:57:53;;;;;;;;;;;;;;;;;;4965181;29;19933;-95
2021/06/14 07:00:25;;;;;;;;;;;;;;;;;;4933874;29;19930;-95
2021/06/14 07:02:54;;;;;;;;;;;;;;;;;;4939283;29;19928;-95
2021/06/14 07:05:37;;;;;;;;;;;;;;;;;;4986425;28;19927;-95
2021/06/14 07:08:12;;;;;;;;;;;;;;;;;;4944021;29;20419;-91
2021/06/14 07:10:43;;;;;;;;;;;;;;;;;;4960143;29;20008;-93
2021/06/14 07:13:12;;;;;;;;;;;;;;;;;;4970346;28;19930;-93
2021/06/14 07:19:02;;;;;;;;;;;;;;;;;;4962855;29;19922;-94
2021/06/14 07:21:34;;;;;;;;;;;;;;;;;;4933328;29;19929;-96
2021/06/14 07:24:08;;;;;;;;;;;;;;;;;;4949322;29;19922;-94
2021/06/14 07:30:00;;;;;;;;;;;;;;;;;;4958533;29;19930;-92
2021/06/14 07:32:47;;;;;;;;;;;;;;;;;;4963351;29;19922;-93
2021/06/14 07:35:20;;;;;;;;;;;;;;;;;;4957428;29;19922;-92
2021/06/14 07:38:11;;;;;;;;;;;;;;;;;;4931869;29;19929;-93
2021/06/14 07:40:40;;;;;;;;;;;;;;;;;;4926320;29;19914;-92
2021/06/14 07:43:12;;;;;;;;;;;;;;;;;;4959653;29;19934;-94
2021/06/14 07:45:43;;;;;;;;;;;;;;;;;;4956797;29;19922;-93
2021/06/14 07:51:54;;;;;;;;;;;;;;;;;;4943975;29;19927;-93
2021/06/14 07:54:23;;;;;;;;;;;;;;;;;;4965303;29;19933;-93
2021/06/14 07:56:55;;;;;;;;;;;;;;;;;;4956145;29;19926;-93
2021/06/14 07:59:24;;;;;;;;;;;;;;;;;;4930366;29;19923;-94
2021/06/14 08:01:54;;;;;;;;;;;;;;;;;;4931523;29;19929;-94
2021/06/14 08:09:04;;;;;;;;;;;;;;;;;;4962844;29;19925;-91
2021/06/14 08:12:02;;;;;;;;;;;;;;;;;;4929170;29;19926;-92
2021/06/14 08:14:30;;;;;;;;;;;;;;;;;;4954428;29;20302;-91
2021/06/14 08:17:00;;;;;;;;;;;;;;;;;;4954714;29;20315;-92
2021/06/14 08:19:35;;;;;;;;;;;;;;;;;;4922554;29;19922;-93
2021/06/14 08:22:25;;;;;;;;;;;;;;;;;;4921896;29;19930;-93
2021/06/14 08:25:06;;;;;;;;;;;;;;;;;;4922365;29;20309;-90
2021/06/14 08:27:43;;;;;;;;;;;;;;;;;;4957290;29;20330;-91
2021/06/14 08:34:40;;;;;;;;;;;;;;;;;;5005841;28;19921;-92
2021/06/14 08:44:59;;;;;;;;;;;;;;;;;;4980428;28;19917;-91
2021/06/14 08:47:31;;;;;;;;;;;;;;;;;;4962372;28;19922;-91
2021/06/14 08:50:02;;;;;;;;;;;;;;;;;;4965216;28;19929;-92
2021/06/14 08:52:31;;;;;;;;;;;;;;;;;;4980667;28;19921;-92
2021/06/14 08:55:22;;;;;;;;;;;;;;;;;;4979916;28;19922;-92
2021/06/14 09:02:18;;;;;;;;;;;;;;;;;;4998535;28;19924;-91
2021/06/14 09:05:15;;;;;;;;;;;;;;;;;;4984243;28;19990;-93
2021/06/14 09:07:44;;;;;;;;;;;;;;;;;;4980683;28;19912;-94
2021/06/14 09:10:22;;;;;;;;;;;;;;;;;;4987929;28;19920;-94
2021/06/14 09:13:15;;;;;;;;;;;;;;;;;;4998901;28;19910;-95
2021/06/14 09:15:45;;;;;;;;;;;;;;;;;;4961547;28;19926;-90
2021/06/14 09:18:26;;;;;;;;;;;;;;;;;;4963546;28;20553;-89
2021/06/14 09:21:07;;;;;;;;;;;;;;;;;;4970596;28;20408;-89
2021/06/14 09:23:53;;;;;;;;;;;;;;;;;;4947901;28;20390;-91
2021/06/14 09:26:25;;;;;;;;;;;;;;;;;;4978884;28;20400;-91
2021/06/14 09:28:57;;;;;;;;;;;;;;;;;;4971552;28;19933;-91
2021/06/14 09:31:28;;;;;;;;;;;;;;;;;;4972791;28;19922;-90
2021/06/14 09:33:58;;;;;;;;;;;;;;;;;;4963372;28;19921;-91
2021/06/14 09:36:27;;;;;;;;;;;;;;;;;;4968102;28;19945;-91
2021/06/14 09:38:55;;;;;;;;;;;;;;;;;;4959413;28;19922;-92
2021/06/14 09:41:24;;;;;;;;;;;;;;;;;;4964297;28;19929;-91
2021/06/14 09:43:54;;;;;;;;;;;;;;;;;;4968985;28;19926;-89
2021/06/14 09:46:25;;;;;;;;;;;;;;;;;;4946399;29;19922;-90
2021/06/14 09:48:54;;;;;;;;;;;;;;;;;;4957396;28;19922;-90
2021/06/14 09:51:23;;;;;;;;;;;;;;;;;;4949261;28;20286;-91
2021/06/14 09:53:52;;;;;;;;;;;;;;;;;;4964896;28;19929;-89
2021/06/14 09:56:21;;;;;;;;;;;;;;;;;;4936698;28;19926;-91
2021/06/14 09:58:50;;;;;;;;;;;;;;;;;;4960109;28;20306;-90
2021/06/14 10:01:38;;;;;;;;;;;;;;;;;;4945197;28;20279;-90
2021/06/14 10:04:09;;;;;;;;;;;;;;;;;;4973895;28;19928;-90
2021/06/14 10:06:39;;;;;;;;;;;;;;;;;;4977299;28;19932;-90
2021/06/14 10:09:10;;;;;;;;;;;;;;;;;;4961736;28;19922;-92
2021/06/14 10:11:39;;;;;;;;;;;;;;;;;;4956232;28;19933;-90
2021/06/14 10:14:11;;;;;;;;;;;;;;;;;;4948892;28;19922;-90
2021/06/14 10:16:41;;;;;;;;;;;;;;;;;;4956265;28;19922;-90
2021/06/14 10:19:10;;;;;;;;;;;;;;;;;;4970856;28;20392;-90
2021/06/14 10:21:42;;;;;;;;;;;;;;;;;;4958950;28;19926;-90
2021/06/14 10:24:11;;;;;;;;;;;;;;;;;;4949866;28;19929;-89
2021/06/14 10:26:42;;;;;;;;;;;;;;;;;;4962406;28;19922;-91
2021/06/14 10:29:17;;;;;;;;;;;;;;;;;;4954934;28;19922;-91
2021/06/14 10:31:47;;;;;;;;;;;;;;;;;;4939143;29;20339;-91
2021/06/14 10:34:17;;;;;;;;;;;;;;;;;;4953242;28;19926;-88
2021/06/14 10:36:52;;;;;;;;;;;;;;;;;;4968743;28;19929;-89
2021/06/14 10:39:22;;;;;;;;;;;;;;;;;;4938796;29;19922;-90
2021/06/14 10:41:50;;;;;;;;;;;;;;;;;;4953596;28;19922;-90
2021/06/14 10:44:18;;;;;;;;;;;;;;;;;;4941149;28;20313;-89
2021/06/14 10:46:47;;;;;;;;;;;;;;;;;;4944610;28;19929;-90
2021/06/14 10:49:16;;;;;;;;;;;;;;;;;;4957458;28;19945;-89
2021/06/14 10:51:45;;;;;;;;;;;;;;;;;;4952405;28;19922;-91
2021/06/14 10:54:16;;;;;;;;;;;;;;;;;;4969787;28;19945;-87
2021/06/14 10:56:45;;;;;;;;;;;;;;;;;;4962296;28;19922;-90
2021/06/14 10:59:14;;;;;;;;;;;;;;;;;;4948956;28;19929;-87
2021/06/14 11:01:44;;;;;;;;;;;;;;;;;;4962989;28;19926;-87
2021/06/14 11:04:22;;;;;;;;;;;;;;;;;;4953805;28;19921;-88
2021/06/14 11:06:52;;;;;;;;;;;;;;;;;;4960613;28;19921;-87
2021/06/14 11:09:21;;;;;;;;;;;;;;;;;;4943516;28;19925;-87
2021/06/14 11:11:50;;;;;;;;;;;;;;;;;;4947235;28;19922;-88
2021/06/14 11:14:29;;;;;;;;;;;;;;;;;;4947243;28;19925;-88
2021/06/14 11:17:00;;;;;;;;;;;;;;;;;;4968324;28;19928;-88
2021/06/14 11:19:35;;;;;;;;;;;;;;;;;;4941874;28;19929;-87
2021/06/14 11:22:04;;;;;;;;;;;;;;;;;;4962197;28;19921;-88
2021/06/14 11:24:35;;;;;;;;;;;;;;;;;;4966422;28;19922;-87
2021/06/14 11:27:04;;;;;;;;;;;;;;;;;;4963570;28;19922;-87
2021/06/14 11:29:41;;;;;;;;;;;;;;;;;;4966987;28;19933;-88
2021/06/14 11:32:20;;;;;;;;;;;;;;;;;;4949062;28;19921;-91
2021/06/14 11:34:51;;;;;;;;;;;;;;;;;;4946102;28;20425;-91
2021/06/14 11:37:20;;;;;;;;;;;;;;;;;;4966673;28;19921;-91
2021/06/14 11:39:59;;;;;;;;;;;;;;;;;;4942780;28;19926;-91
2021/06/14 11:42:30;;;;;;;;;;;;;;;;;;4960373;28;19922;-90
2021/06/14 11:44:59;;;;;;;;;;;;;;;;;;4964923;28;19929;-90
2021/06/14 11:47:28;;;;;;;;;;;;;;;;;;4954438;28;19929;-90
2021/06/14 11:49:58;;;;;;;;;;;;;;;;;;4945872;28;19929;-91
2021/06/14 11:52:31;;;;;;;;;;;;;;;;;;4959885;28;20401;-90
2021/06/14 11:55:02;;;;;;;;;;;;;;;;;;4955736;28;19929;-90
2021/06/14 11:57:31;;;;;;;;;;;;;;;;;;4959516;28;19922;-90
2021/06/14 11:59:59;;;;;;;;;;;;;;;;;;4975916;28;19930;-90
2021/06/14 12:02:28;;;;;;;;;;;;;;;;;;4970299;28;19929;-90
2021/06/14 12:08:09;;;;;;;;;;;;;;;;;;4959615;28;19945;-90
2021/06/14 12:10:39;;;;;;;;;;;;;;;;;;4952130;28;19929;-90
2021/06/14 12:13:26;;;;;;;;;;;;;;;;;;4965697;28;19922;-91
2021/06/14 12:15:55;;;;;;;;;;;;;;;;;;4959823;28;19922;-90
2021/06/14 12:18:23;;;;;;;;;;;;;;;;;;4955264;28;19928;-90
2021/06/14 12:20:55;;;;;;;;;;;;;;;;;;4964889;28;19922;-90
2021/06/14 12:23:24;;;;;;;;;;;;;;;;;;4982669;28;19921;-91
2021/06/14 12:25:53;;;;;;;;;;;;;;;;;;4995554;28;19922;-90
2021/06/14 12:28:22;;;;;;;;;;;;;;;;;;4973945;28;19916;-90
2021/06/14 12:30:51;;;;;;;;;;;;;;;;;;4984295;28;19910;-90
2021/06/14 12:33:26;;;;;;;;;;;;;;;;;;4954686;28;19922;-90
2021/06/14 12:35:54;;;;;;;;;;;;;;;;;;4977031;28;20298;-90
2021/06/14 12:38:23;;;;;;;;;;;;;;;;;;4951794;28;19922;-90
2021/06/14 12:40:53;;;;;;;;;;;;;;;;;;4970002;28;20311;-90
2021/06/14 12:43:21;;;;;;;;;;;;;;;;;;4943750;28;20298;-91
2021/06/14 12:45:53;;;;;;;;;;;;;;;;;;4960516;28;19929;-90
2021/06/14 12:48:22;;;;;;;;;;;;;;;;;;4957056;28;20319;-91
2021/06/14 12:50:51;;;;;;;;;;;;;;;;;;4959861;28;19922;-91
2021/06/14 12:53:19;;;;;;;;;;;;;;;;;;4971483;28;19922;-90
2021/06/14 12:55:48;;;;;;;;;;;;;;;;;;4975507;28;19930;-90
2021/06/14 12:58:18;;;;;;;;;;;;;;;;;;4970874;28;19935;-91
2021/06/14 13:00:47;;;;;;;;;;;;;;;;;;4959349;28;19922;-90
2021/06/14 13:03:16;;;;;;;;;;;;;;;;;;4946287;28;19926;-91
2021/06/14 13:05:45;;;;;;;;;;;;;;;;;;4976276;28;20330;-90
2021/06/14 13:08:15;;;;;;;;;;;;;;;;;;4961044;28;19945;-90
2021/06/14 13:10:44;;;;;;;;;;;;;;;;;;4957933;28;19999;-90
2021/06/14 13:13:14;;;;;;;;;;;;;;;;;;4976958;28;19934;-90
2021/06/14 13:15:44;;;;;;;;;;;;;;;;;;4959075;28;19922;-90
2021/06/14 13:18:13;;;;;;;;;;;;;;;;;;4971837;28;19922;-91
2021/06/14 13:20:41;;;;;;;;;;;;;;;;;;4970940;28;20309;-90
2021/06/14 13:23:11;;;;;;;;;;;;;;;;;;4956947;28;19922;-90
2021/06/14 13:25:42;;;;;;;;;;;;;;;;;;4963105;28;20306;-90
2021/06/14 13:28:11;;;;;;;;;;;;;;;;;;4973171;28;19906;-90
2021/06/14 13:30:40;;;;;;;;;;;;;;;;;;4982727;28;19922;-89
2021/06/14 13:33:20;;;;;;;;;;;;;;;;;;4960298;28;19932;-90
2021/06/14 13:35:50;;;;;;;;;;;;;;;;;;4959336;28;19929;-90
2021/06/14 13:38:21;;;;;;;;;;;;;;;;;;4945103;28;19926;-91
2021/06/14 13:40:50;;;;;;;;;;;;;;;;;;4944947;28;19930;-88
2021/06/14 13:43:23;;;;;;;;;;;;;;;;;;4942413;28;19929;-88
2021/06/14 13:54:57;;;;;;;;;;;;;;;;;;4990090;28;19921;-88
2021/06/14 13:57:26;;;;;;;;;;;;;;;;;;4957716;28;19929;-88
2021/06/14 14:00:04;;;;;;;;;;;;;;;;;;4973668;28;20393;-88
2021/06/14 14:02:47;;;;;;;;;;;;;;;;;;4971363;28;19922;-89
2021/06/14 14:12:42;;;;;;;;;;;;;;;;;;4947034;28;20391;-90
2021/06/14 14:15:12;;;;;;;;;;;;;;;;;;4938625;29;19922;-90
2021/06/14 14:17:42;;;;;;;;;;;;;;;;;;4937523;29;20359;-91
2021/06/14 14:20:17;;;;;;;;;;;;;;;;;;4915964;29;19923;-91
2021/06/14 14:22:48;;;;;;;;;;;;;;;;;;4955205;28;20498;-91
2021/06/14 14:25:16;;;;;;;;;;;;;;;;;;4944912;28;19922;-90
2021/06/14 14:27:46;;;;;;;;;;;;;;;;;;4921873;29;19922;-92
2021/06/14 14:30:23;;;;;;;;;;;;;;;;;;4954356;28;19922;-91
2021/06/14 14:32:51;;;;;;;;;;;;;;;;;;4938153;29;19922;-91
2021/06/14 14:35:29;;;;;;;;;;;;;;;;;;4926510;29;20729;-91
2021/06/14 14:38:01;;;;;;;;;;;;;;;;;;4935051;29;19923;-91
2021/06/14 14:40:33;;;;;;;;;;;;;;;;;;4943283;28;19933;-91
2021/06/14 14:43:06;;;;;;;;;;;;;;;;;;4977890;28;19921;-91
2021/06/14 14:45:36;;;;;;;;;;;;;;;;;;4960328;28;19933;-90
2021/06/14 14:48:06;;;;;;;;;;;;;;;;;;4957051;28;19926;-91
2021/06/14 14:50:38;;;;;;;;;;;;;;;;;;4959417;28;19929;-90
2021/06/14 14:53:06;;;;;;;;;;;;;;;;;;4961533;28;19929;-90
2021/06/14 14:55:35;;;;;;;;;;;;;;;;;;4964428;28;19945;-90
2021/06/14 14:58:07;;;;;;;;;;;;;;;;;;4959743;28;19926;-92
2021/06/14 15:00:37;;;;;;;;;;;;;;;;;;4942711;28;19933;-90
2021/06/14 15:03:22;;;;;;;;;;;;;;;;;;4940916;28;19922;-91
2021/06/14 15:09:33;;;;;;;;;;;;;;;;;;4916292;28;19922;-92
2021/06/14 15:12:12;;;;;;;;;;;;;;;;;;4959279;28;19932;-91
2021/06/14 15:14:41;;;;;;;;;;;;;;;;;;4942226;28;19926;-89
2021/06/14 15:17:12;;;;;;;;;;;;;;;;;;4961063;28;19928;-90
2021/06/14 15:19:40;;;;;;;;;;;;;;;;;;4958994;28;19921;-90
2021/06/14 15:22:18;;;;;;;;;;;;;;;;;;4961465;28;19930;-90
2021/06/14 15:24:46;;;;;;;;;;;;;;;;;;4971153;28;19922;-91
2021/06/14 15:27:16;;;;;;;;;;;;;;;;;;4944268;28;19937;-92
2021/06/14 15:29:44;;;;;;;;;;;;;;;;;;4954556;28;19922;-91
2021/06/14 15:32:14;;;;;;;;;;;;;;;;;;4960393;28;19929;-92
2021/06/14 15:34:43;;;;;;;;;;;;;;;;;;4946883;28;19921;-91
2021/06/14 15:37:11;;;;;;;;;;;;;;;;;;4958575;28;19922;-91
2021/06/14 15:39:52;;;;;;;;;;;;;;;;;;4974584;28;20381;-90
2021/06/14 15:42:25;;;;;;;;;;;;;;;;;;4937802;28;20291;-91
2021/06/14 15:44:53;;;;;;;;;;;;;;;;;;4940001;28;19929;-91
2021/06/14 15:47:23;;;;;;;;;;;;;;;;;;4951718;28;20072;-90
2021/06/14 15:49:51;;;;;;;;;;;;;;;;;;4938440;28;19931;-91
2021/06/14 15:52:20;;;;;;;;;;;;;;;;;;4948769;28;19929;-90
2021/06/14 15:54:48;;;;;;;;;;;;;;;;;;4984229;28;19922;-88
2021/06/14 15:57:16;;;;;;;;;;;;;;;;;;4941786;28;19923;-90
2021/06/14 15:59:44;;;;;;;;;;;;;;;;;;4976218;28;19929;-89
2021/06/14 16:02:17;;;;;;;;;;;;;;;;;;4953347;28;19963;-89
2021/06/14 16:04:46;;;;;;;;;;;;;;;;;;4935170;28;19922;-90
2021/06/14 16:07:15;;;;;;;;;;;;;;;;;;4950860;28;19922;-91
2021/06/14 16:09:43;;;;;;;;;;;;;;;;;;4949053;28;20309;-91
2021/06/14 16:12:12;;;;;;;;;;;;;;;;;;4959423;28;19922;-92
2021/06/14 16:14:41;;;;;;;;;;;;;;;;;;4960271;28;19939;-90
2021/06/14 16:17:09;;;;;;;;;;;;;;;;;;4958897;28;19921;-91
2021/06/14 16:19:37;;;;;;;;;;;;;;;;;;4943902;28;19926;-90
2021/06/14 16:22:07;;;;;;;;;;;;;;;;;;4963783;28;19930;-90
2021/06/14 16:24:39;;;;;;;;;;;;;;;;;;4945157;28;19921;-91
2021/06/14 16:27:08;;;;;;;;;;;;;;;;;;4965680;28;19922;-90
2021/06/14 16:29:36;;;;;;;;;;;;;;;;;;4955948;28;19937;-91
2021/06/14 16:32:05;;;;;;;;;;;;;;;;;;4950790;28;20386;-91
2021/06/14 16:34:33;;;;;;;;;;;;;;;;;;4943794;28;19930;-90
2021/06/14 16:37:02;;;;;;;;;;;;;;;;;;4946425;28;20378;-88
2021/06/14 16:39:32;;;;;;;;;;;;;;;;;;4953882;28;19929;-87
2021/06/14 16:42:01;;;;;;;;;;;;;;;;;;4958848;28;19922;-88
2021/06/14 16:44:29;;;;;;;;;;;;;;;;;;4962941;28;19929;-87
2021/06/14 16:46:58;;;;;;;;;;;;;;;;;;4946648;28;19922;-87
2021/06/14 16:49:26;;;;;;;;;;;;;;;;;;4971327;28;19922;-87
2021/06/14 16:51:58;;;;;;;;;;;;;;;;;;4979962;28;19944;-87
2021/06/14 16:54:28;;;;;;;;;;;;;;;;;;4946380;28;19948;-88
2021/06/14 16:56:58;;;;;;;;;;;;;;;;;;4973696;28;19922;-88
2021/06/14 16:59:26;;;;;;;;;;;;;;;;;;4968040;28;19922;-87
2021/06/14 17:01:56;;;;;;;;;;;;;;;;;;4963468;28;19930;-87
2021/06/14 17:04:25;;;;;;;;;;;;;;;;;;4969004;28;19922;-88
2021/06/14 17:06:53;;;;;;;;;;;;;;;;;;4959343;28;19933;-88
2021/06/14 17:09:22;;;;;;;;;;;;;;;;;;4947373;28;19922;-87
2021/06/14 17:11:50;;;;;;;;;;;;;;;;;;4946148;28;19929;-88
2021/06/14 17:14:20;;;;;;;;;;;;;;;;;;4985161;28;20382;-87
2021/06/14 17:16:49;;;;;;;;;;;;;;;;;;4949783;28;19929;-89
2021/06/14 17:19:17;;;;;;;;;;;;;;;;;;4966158;28;20307;-87
2021/06/14 17:21:46;;;;;;;;;;;;;;;;;;4948606;28;20081;-88
2021/06/14 17:24:16;;;;;;;;;;;;;;;;;;4972677;28;19929;-88
2021/06/14 17:26:44;;;;;;;;;;;;;;;;;;4943180;28;19933;-88
2021/06/14 17:29:13;;;;;;;;;;;;;;;;;;4971341;28;20302;-89
2021/06/14 17:31:48;;;;;;;;;;;;;;;;;;4944123;28;20322;-90
2021/06/14 17:34:24;;;;;;;;;;;;;;;;;;4962096;28;19941;-89
2021/06/14 17:36:53;;;;;;;;;;;;;;;;;;4971670;28;19906;-88
2021/06/14 17:39:24;;;;;;;;;;;;;;;;;;4969890;28;19910;-88
2021/06/14 17:41:55;;;;;;;;;;;;;;;;;;4981009;28;19934;-89
2021/06/14 17:44:29;;;;;;;;;;;;;;;;;;4965111;28;19922;-89
2021/06/14 17:47:08;;;;;;;;;;;;;;;;;;4951981;28;19933;-88
2021/06/14 17:49:37;;;;;;;;;;;;;;;;;;4952180;28;19929;-88
2021/06/14 17:52:06;;;;;;;;;;;;;;;;;;4957212;28;19930;-85
2021/06/14 17:54:34;;;;;;;;;;;;;;;;;;4951269;28;20274;-86
2021/06/14 17:57:03;;;;;;;;;;;;;;;;;;4943559;28;20578;-86
2021/06/14 17:59:31;;;;;;;;;;;;;;;;;;4959310;28;19926;-85
2021/06/14 18:02:01;;;;;;;;;;;;;;;;;;4981046;28;19930;-86
2021/06/14 18:04:32;;;;;;;;;;;;;;;;;;4964275;28;19925;-86